createdAt,value
2022-10-12T00:00:19.722Z,2.43
2022-10-12T00:02:48.502Z,2.90
2022-10-12T00:05:16.037Z,2.57
2022-10-12T00:07:43.525Z,2.57
2022-10-12T00:10:10.997Z,2.47
2022-10-12T00:12:38.851Z,2.40
2022-10-12T00:15:07.064Z,2.10
2022-10-12T00:17:34.668Z,2.43
2022-10-12T00:20:03.803Z,2.60
2022-10-12T00:22:31.283Z,3.13
2022-10-12T00:24:58.741Z,2.70
2022-10-12T00:27:26.220Z,2.40
2022-10-12T00:29:53.737Z,2.80
2022-10-12T00:32:21.586Z,2.10
2022-10-12T00:34:49.054Z,2.43
2022-10-12T00:37:17.905Z,2.37
2022-10-12T00:39:45.779Z,2.37
2022-10-12T00:42:13.374Z,2.43
2022-10-12T00:44:43.701Z,2.20
2022-10-12T00:47:18.581Z,2.53
2022-10-12T00:49:48.681Z,2.53
2022-10-12T00:52:18.801Z,2.37
2022-10-12T00:54:48.251Z,2.77
2022-10-12T00:57:17.216Z,2.97
2022-10-12T00:59:47.341Z,2.70
2022-10-12T01:02:14.932Z,2.53
2022-10-12T01:04:42.516Z,2.33
2022-10-12T01:07:10.083Z,2.60
2022-10-12T01:09:39.120Z,1.97
2022-10-12T01:12:08.393Z,2.40
2022-10-12T01:14:36.565Z,2.33
2022-10-12T01:17:10.673Z,2.20
2022-10-12T01:20:14.595Z,2.53
2022-10-12T01:22:46.712Z,2.53
2022-10-12T01:25:26.217Z,1.90
2022-10-12T01:27:55.450Z,2.57
2022-10-12T01:30:25.265Z,2.83
2022-10-12T01:33:07.993Z,2.17
2022-10-12T01:35:40.697Z,2.70
2022-10-12T01:38:14.170Z,2.43
2022-10-12T01:40:47.048Z,2.43
2022-10-12T01:43:18.039Z,2.57
2022-10-12T01:45:46.906Z,3.30
2022-10-12T01:48:14.476Z,2.00
2022-10-12T01:50:49.660Z,2.70
2022-10-12T01:53:23.846Z,2.10
2022-10-12T01:55:55.574Z,2.80
2022-10-12T01:58:33.595Z,2.47
2022-10-12T02:01:09.054Z,2.67
2022-10-12T02:03:41.350Z,2.10
2022-10-12T02:06:11.022Z,2.10
2022-10-12T02:08:42.368Z,1.70
2022-10-12T02:11:12.353Z,2.53
2022-10-12T02:13:41.384Z,2.30
2022-10-12T02:16:12.117Z,1.90
2022-10-12T02:18:41.379Z,2.83
2022-10-12T02:21:09.558Z,2.60
2022-10-12T02:23:37.676Z,2.30
2022-10-12T02:26:06.309Z,2.37
2022-10-12T02:28:35.769Z,2.60
2022-10-12T02:31:08.634Z,2.37
2022-10-12T02:33:41.018Z,1.97
2022-10-12T02:36:12.625Z,2.63
2022-10-12T02:38:43.715Z,2.40
2022-10-12T02:41:14.929Z,1.90
2022-10-12T02:43:44.819Z,3.00
2022-10-12T02:46:12.520Z,2.40
2022-10-12T02:48:41.685Z,2.90
2022-10-12T02:51:10.526Z,2.43
2022-10-12T02:53:38.416Z,2.60
2022-10-12T02:56:08.689Z,2.60
2022-10-12T02:58:36.185Z,2.60
2022-10-12T03:01:03.753Z,2.93
2022-10-12T03:03:31.296Z,2.40
2022-10-12T03:06:00.143Z,2.27
2022-10-12T03:08:27.607Z,2.20
2022-10-12T03:10:55.081Z,2.83
2022-10-12T03:13:22.547Z,2.13
2022-10-12T03:15:49.986Z,2.20
2022-10-12T03:18:17.450Z,2.47
2022-10-12T03:20:48.797Z,2.40
2022-10-12T03:23:17.617Z,2.10
2022-10-12T03:25:45.082Z,2.63
2022-10-12T03:28:12.625Z,3.30
2022-10-12T03:30:40.123Z,2.77
2022-10-12T03:33:07.591Z,3.27
2022-10-12T03:35:35.069Z,2.63
2022-10-12T03:38:02.523Z,2.87
2022-10-12T03:40:31.380Z,3.20
2022-10-12T03:42:58.829Z,3.20
2022-10-12T03:45:26.261Z,2.77
2022-10-12T03:47:53.737Z,2.60
2022-10-12T03:50:21.193Z,2.90
2022-10-12T03:52:48.775Z,2.17
2022-10-12T03:55:16.618Z,2.60
2022-10-12T03:57:45.666Z,2.27
2022-10-12T04:00:14.602Z,2.50
2022-10-12T04:02:42.269Z,3.43
2022-10-12T04:05:10.239Z,2.77
2022-10-12T04:07:38.210Z,2.50
2022-10-12T04:10:07.195Z,3.50
2022-10-12T04:12:34.728Z,3.00
2022-10-12T04:15:03.559Z,3.17
2022-10-12T04:17:31.053Z,2.53
2022-10-12T04:19:58.535Z,2.83
2022-10-12T04:22:26.132Z,2.87
2022-10-12T04:24:53.599Z,2.57
2022-10-12T04:27:21.239Z,2.97
2022-10-12T04:29:48.720Z,3.13
2022-10-12T04:32:17.533Z,2.93
2022-10-12T04:34:44.994Z,2.80
2022-10-12T04:37:12.466Z,2.27
2022-10-12T04:39:39.924Z,2.73
2022-10-12T04:42:07.810Z,2.30
2022-10-12T04:44:35.531Z,3.13
2022-10-12T04:47:03.422Z,2.90
2022-10-12T04:49:32.304Z,2.70
2022-10-12T04:51:59.949Z,3.33
2022-10-12T04:54:27.425Z,2.63
2022-10-12T04:56:54.888Z,2.97
2022-10-12T04:59:22.365Z,2.80
2022-10-12T05:01:49.891Z,3.50
2022-10-12T05:04:17.404Z,3.67
2022-10-12T05:06:46.186Z,2.97
2022-10-12T05:09:23.070Z,3.40
2022-10-12T05:11:50.530Z,3.20
2022-10-12T05:14:17.993Z,2.70
2022-10-12T05:16:45.620Z,3.07
2022-10-12T05:19:13.076Z,3.83
2022-10-12T05:21:40.671Z,3.60
2022-10-12T05:24:09.560Z,4.10
2022-10-12T05:26:37.097Z,2.40
2022-10-12T05:29:04.778Z,3.13
2022-10-12T05:31:32.253Z,4.00
2022-10-12T05:33:59.726Z,4.13
2022-10-12T05:36:27.152Z,5.20
2022-10-12T05:38:54.660Z,3.07
2022-10-12T05:41:33.627Z,3.37
2022-10-12T05:44:01.093Z,5.53
2022-10-12T05:46:28.547Z,5.47
2022-10-12T05:48:56.014Z,5.10
2022-10-12T05:51:28.609Z,4.10
2022-10-12T05:53:56.452Z,3.10
2022-10-12T05:56:25.231Z,3.83
2022-10-12T05:58:52.699Z,4.50
2022-10-12T06:01:20.154Z,3.60
2022-10-12T06:03:47.630Z,4.30
2022-10-12T06:06:15.096Z,4.40
2022-10-12T06:08:42.751Z,3.03
2022-10-12T06:11:10.235Z,3.67
2022-10-12T06:13:39.049Z,3.13
2022-10-12T06:16:07.026Z,3.10
2022-10-12T06:18:34.526Z,2.60
2022-10-12T06:21:31.982Z,3.27
2022-10-12T06:23:49.420Z,4.30
2022-10-12T06:26:17.357Z,4.67
2022-10-12T06:28:46.246Z,3.50
2022-10-12T06:31:15.063Z,3.37
2022-10-12T06:33:42.584Z,3.13
2022-10-12T06:36:10.047Z,3.30
2022-10-12T06:38:37.571Z,3.33
2022-10-12T06:41:07.814Z,3.87
2022-10-12T06:43:35.335Z,2.73
2022-10-12T06:46:04.544Z,3.20
2022-10-12T06:48:32.137Z,2.77
2022-10-12T06:50:59.624Z,3.80
2022-10-12T06:53:28.746Z,3.30
2022-10-12T06:55:56.387Z,3.70
2022-10-12T06:58:23.865Z,4.17
2022-10-12T07:00:51.546Z,3.07
2022-10-12T07:03:20.390Z,3.70
2022-10-12T07:05:47.868Z,3.10
2022-10-12T07:08:15.349Z,4.00
2022-10-12T07:10:42.854Z,4.30
2022-10-12T07:13:10.320Z,3.13
2022-10-12T07:15:37.814Z,2.93
2022-10-12T07:18:05.371Z,4.20
2022-10-12T07:20:34.190Z,3.50
2022-10-12T07:23:01.656Z,3.53
2022-10-12T07:25:29.169Z,3.30
2022-10-12T07:27:56.676Z,4.27
2022-10-12T07:30:24.127Z,3.33
2022-10-12T07:32:51.628Z,4.00
2022-10-12T07:35:19.130Z,4.00
2022-10-12T07:37:49.497Z,3.70
2022-10-12T07:40:17.071Z,4.50
2022-10-12T07:43:05.409Z,4.10
2022-10-12T07:45:31.990Z,3.90
2022-10-12T07:47:59.533Z,3.33
2022-10-12T07:50:27.119Z,2.80
2022-10-12T07:52:55.975Z,3.07
2022-10-12T07:55:23.455Z,3.13
2022-10-12T07:57:50.997Z,3.40
2022-10-12T08:00:21.000Z,3.97
2022-10-12T08:02:48.456Z,2.80
2022-10-12T08:05:16.053Z,2.77
2022-10-12T08:07:43.521Z,3.40
2022-10-12T08:10:12.497Z,2.67
2022-10-12T08:12:39.943Z,2.90
2022-10-12T08:15:08.280Z,3.10
2022-10-12T08:17:35.816Z,2.23
2022-10-12T08:20:03.635Z,2.80
2022-10-12T08:22:31.103Z,2.60
2022-10-12T08:24:58.587Z,3.30
2022-10-12T08:27:30.888Z,3.63
2022-10-12T08:29:58.413Z,3.03
2022-10-12T08:32:25.957Z,3.13
2022-10-12T08:34:53.484Z,3.63
2022-10-12T08:37:20.966Z,2.87
2022-10-12T08:39:48.475Z,2.83
2022-10-12T08:42:26.164Z,2.83
2022-10-12T08:45:02.721Z,3.27
2022-10-12T08:47:35.781Z,3.53
2022-10-12T08:50:04.371Z,3.00
2022-10-12T08:52:34.787Z,3.70
2022-10-12T08:55:06.381Z,3.50
2022-10-12T08:57:35.309Z,3.00
2022-10-12T09:00:04.983Z,3.40
2022-10-12T09:02:50.779Z,3.07
2022-10-12T09:05:22.455Z,3.50
2022-10-12T09:07:56.491Z,3.30
2022-10-12T09:10:34.117Z,2.70
2022-10-12T09:13:08.621Z,3.20
2022-10-12T09:15:40.393Z,4.13
2022-10-12T09:18:17.148Z,3.87
2022-10-12T09:20:47.788Z,3.27
2022-10-12T09:23:24.360Z,3.53
2022-10-12T09:25:52.127Z,3.70
2022-10-12T09:28:24.239Z,4.93
2022-10-12T09:31:02.828Z,4.00
2022-10-12T09:33:33.373Z,4.60
2022-10-12T09:36:00.941Z,3.80
2022-10-12T09:38:28.404Z,4.07
2022-10-12T09:40:55.879Z,4.47
2022-10-12T09:43:23.381Z,4.47
2022-10-12T09:45:50.991Z,3.77
2022-10-12T09:48:21.685Z,3.57
2022-10-12T09:50:51.873Z,3.40
2022-10-12T09:53:23.431Z,3.37
2022-10-12T09:55:55.775Z,6.37
2022-10-12T09:58:23.632Z,3.73
2022-10-12T10:01:16.457Z,4.87
2022-10-12T10:03:45.744Z,4.60
2022-10-12T10:06:15.192Z,5.87
2022-10-12T10:08:44.328Z,5.20
2022-10-12T10:11:17.366Z,5.50
2022-10-12T10:13:48.816Z,4.90
2022-10-12T10:16:16.900Z,5.77
2022-10-12T10:18:48.836Z,6.50
2022-10-12T10:21:18.001Z,5.70
2022-10-12T10:23:51.664Z,6.13
2022-10-12T10:26:20.976Z,6.03
2022-10-12T10:28:50.061Z,4.93
2022-10-12T10:31:21.866Z,5.17
2022-10-12T10:34:21.636Z,6.03
2022-10-12T10:36:51.411Z,6.80
2022-10-12T10:39:21.636Z,5.10
2022-10-12T10:41:49.701Z,5.10
2022-10-12T10:44:24.859Z,5.37
2022-10-12T10:46:53.239Z,6.43
2022-10-12T10:49:29.620Z,5.00
2022-10-12T10:51:58.908Z,5.53
2022-10-12T10:54:28.919Z,6.00
2022-10-12T10:57:00.852Z,5.40
2022-10-12T10:59:37.560Z,5.17
2022-10-12T11:02:20.884Z,5.30
2022-10-12T11:04:52.802Z,4.90
2022-10-12T11:07:24.836Z,5.70
2022-10-12T11:09:55.085Z,5.73
2022-10-12T11:12:31.075Z,4.93
2022-10-12T11:15:05.873Z,6.23
2022-10-12T11:17:35.053Z,5.83
2022-10-12T11:20:17.233Z,4.90
2022-10-12T11:22:49.772Z,5.23
2022-10-12T11:25:22.625Z,5.40
2022-10-12T11:27:53.744Z,5.10
2022-10-12T11:30:22.792Z,5.43
2022-10-12T11:32:52.731Z,5.60
2022-10-12T11:35:27.728Z,6.23
2022-10-12T11:37:57.141Z,5.47
2022-10-12T11:40:55.737Z,6.10
2022-10-12T11:43:19.465Z,3.87
2022-10-12T11:45:49.844Z,4.17
2022-10-12T11:48:24.891Z,4.80
2022-10-12T11:50:58.949Z,5.67
2022-10-12T11:53:36.332Z,4.87
2022-10-12T11:56:09.337Z,4.97
2022-10-12T11:59:00.099Z,5.47
2022-10-12T12:01:44.876Z,4.73
2022-10-12T12:04:41.699Z,4.93
2022-10-12T12:07:53.213Z,4.63
2022-10-12T12:11:00.639Z,6.10
2022-10-12T12:13:30.148Z,5.27
2022-10-12T12:16:32.609Z,4.30
2022-10-12T12:19:18.511Z,4.67
2022-10-12T12:22:26.369Z,5.90
2022-10-12T12:25:16.691Z,5.10
2022-10-12T12:27:45.960Z,4.90
2022-10-12T12:30:39.086Z,4.80
2022-10-12T12:33:26.213Z,5.47
2022-10-12T12:35:55.754Z,4.97
2022-10-12T12:38:32.084Z,4.43
2022-10-12T12:41:09.041Z,5.30
2022-10-12T12:43:56.076Z,5.60
2022-10-12T12:46:27.044Z,5.67
2022-10-12T12:49:00.146Z,6.00
2022-10-12T12:51:37.610Z,6.73
2022-10-12T12:54:08.354Z,6.10
2022-10-12T12:56:42.153Z,5.90
2022-10-12T12:59:34.081Z,5.80
2022-10-12T13:02:19.622Z,6.60
2022-10-12T13:05:08.680Z,6.80
2022-10-12T13:07:48.964Z,5.10
2022-10-12T13:10:32.861Z,6.20
2022-10-12T13:13:12.413Z,6.13
2022-10-12T13:15:46.757Z,6.70
2022-10-12T13:18:52.463Z,5.50
2022-10-12T13:21:21.516Z,7.07
2022-10-12T13:23:51.330Z,6.73
2022-10-12T13:26:23.301Z,6.50
2022-10-12T13:28:51.552Z,5.90
2022-10-12T13:31:21.526Z,5.40
2022-10-12T13:33:58.260Z,7.20
2022-10-12T13:36:28.165Z,6.00
2022-10-12T13:38:56.865Z,5.97
2022-10-12T13:41:25.488Z,5.47
2022-10-12T13:43:54.959Z,6.03
2022-10-12T13:46:41.620Z,6.20
2022-10-12T13:49:18.846Z,6.87
2022-10-12T13:51:47.755Z,6.53
2022-10-12T13:54:17.036Z,6.07
2022-10-12T13:56:46.062Z,6.73
2022-10-12T13:59:19.105Z,6.23
2022-10-12T14:01:59.033Z,5.70
2022-10-12T14:04:31.100Z,6.47
2022-10-12T14:07:02.085Z,5.50
2022-10-12T14:09:37.558Z,5.70
2022-10-12T14:12:05.605Z,7.47
2022-10-12T14:14:35.066Z,6.53
2022-10-12T14:17:03.090Z,6.77
2022-10-12T14:19:42.633Z,5.80
2022-10-12T14:22:10.438Z,6.93
2022-10-12T14:24:38.357Z,6.47
2022-10-12T14:27:07.841Z,5.90
2022-10-12T14:29:37.856Z,5.30
2022-10-12T14:32:06.871Z,6.13
2022-10-12T14:34:43.889Z,5.70
2022-10-12T14:37:27.655Z,5.50
2022-10-12T14:40:00.245Z,5.37
2022-10-12T14:42:33.534Z,6.20
2022-10-12T14:45:01.616Z,5.90
2022-10-12T14:47:30.747Z,5.90
2022-10-12T14:50:00.809Z,6.23
2022-10-12T14:52:31.810Z,5.47
2022-10-12T14:55:00.041Z,5.93
2022-10-12T14:57:29.910Z,5.37
2022-10-12T14:59:57.842Z,6.30
2022-10-12T15:02:27.328Z,5.50
2022-10-12T15:04:56.235Z,6.33
2022-10-12T15:07:27.037Z,5.67
2022-10-12T15:09:54.740Z,6.03
2022-10-12T15:12:23.987Z,5.40
2022-10-12T15:14:51.824Z,5.80
2022-10-12T15:17:20.409Z,5.30
2022-10-12T15:19:49.320Z,5.47
2022-10-12T15:22:19.424Z,4.93
2022-10-12T15:24:48.663Z,6.47
2022-10-12T15:27:16.390Z,5.50
2022-10-12T15:29:44.269Z,5.47
2022-10-12T15:32:13.324Z,5.70
2022-10-12T15:34:40.812Z,5.40
2022-10-12T15:37:12.142Z,6.50
2022-10-12T15:39:39.883Z,5.07
2022-10-12T15:42:08.685Z,5.17
2022-10-12T15:44:40.414Z,5.80
2022-10-12T15:47:09.373Z,5.63
2022-10-12T15:49:36.809Z,5.30
2022-10-12T15:52:04.525Z,5.10
2022-10-12T15:54:32.052Z,4.50
2022-10-12T15:56:59.957Z,4.67
2022-10-12T15:59:29.060Z,4.23
2022-10-12T16:01:56.522Z,4.87
2022-10-12T16:04:23.960Z,5.07
2022-10-12T16:06:51.576Z,4.67
2022-10-12T16:09:19.178Z,5.20
2022-10-12T16:11:46.778Z,4.90
2022-10-12T16:14:15.750Z,4.87
2022-10-12T16:16:44.667Z,5.30
2022-10-12T16:19:12.402Z,5.40
2022-10-12T16:21:39.961Z,4.67
2022-10-12T16:24:07.774Z,4.50
2022-10-12T16:26:35.689Z,4.90
2022-10-12T16:29:03.244Z,4.70
2022-10-12T16:31:30.809Z,5.80
2022-10-12T16:34:00.027Z,5.53
2022-10-12T16:36:27.676Z,5.60
2022-10-12T16:38:55.338Z,5.07
2022-10-12T16:41:23.116Z,5.17
2022-10-12T16:43:50.849Z,5.87
2022-10-12T16:46:18.704Z,7.10
2022-10-12T16:48:46.251Z,7.20
2022-10-12T16:51:15.404Z,8.00
2022-10-12T16:53:43.915Z,8.10
2022-10-12T16:56:11.540Z,6.50
2022-10-12T16:58:39.030Z,5.70
2022-10-12T17:01:10.757Z,6.00
2022-10-12T17:03:38.288Z,5.63
2022-10-12T17:06:06.130Z,5.33
2022-10-12T17:08:36.047Z,5.57
2022-10-12T17:11:06.584Z,6.17
2022-10-12T17:13:36.776Z,5.40
2022-10-12T17:16:25.362Z,5.97
2022-10-12T17:18:58.170Z,4.93
2022-10-12T17:21:26.847Z,6.60
2022-10-12T17:23:58.023Z,6.37
2022-10-12T17:26:25.854Z,6.13
2022-10-12T17:28:53.449Z,5.90
2022-10-12T17:31:20.946Z,8.10
2022-10-12T17:33:49.034Z,6.87
2022-10-12T17:36:16.626Z,7.03
2022-10-12T17:38:44.393Z,6.67
2022-10-12T17:41:13.471Z,7.70
2022-10-12T17:43:41.217Z,6.50
2022-10-12T17:46:08.994Z,8.10
2022-10-12T17:48:36.538Z,10.63
2022-10-12T17:51:04.673Z,12.00
2022-10-12T17:53:33.163Z,11.67
2022-10-12T17:56:05.341Z,10.30
2022-10-12T17:58:36.249Z,8.53
2022-10-12T18:01:05.473Z,7.93
2022-10-12T18:03:33.203Z,6.07
2022-10-12T18:06:04.539Z,7.00
2022-10-12T18:08:32.232Z,6.43
2022-10-12T18:11:00.369Z,6.77
2022-10-12T18:13:28.559Z,6.90
2022-10-12T18:16:01.171Z,8.03
2022-10-12T18:18:30.478Z,9.57
2022-10-12T18:20:58.142Z,14.63
2022-10-12T18:23:25.806Z,11.07
2022-10-12T18:25:53.427Z,10.23
2022-10-12T18:28:21.249Z,9.77
2022-10-12T18:30:50.080Z,9.93
2022-10-12T18:33:19.043Z,9.80
2022-10-12T18:35:46.760Z,7.93
2022-10-12T18:38:14.367Z,7.63
2022-10-12T18:40:42.636Z,6.83
2022-10-12T18:43:10.810Z,6.50
2022-10-12T18:45:42.418Z,7.20
2022-10-12T18:48:10.334Z,6.70
2022-10-12T18:50:39.910Z,6.63
2022-10-12T18:53:07.911Z,6.60
2022-10-12T18:55:37.392Z,7.63
2022-10-12T18:58:05.326Z,8.97
2022-10-12T19:00:33.072Z,8.33
2022-10-12T19:03:00.654Z,7.00
2022-10-12T19:05:28.317Z,8.80
2022-10-12T19:07:57.214Z,8.60
2022-10-12T19:10:24.855Z,8.80
2022-10-12T19:12:52.362Z,9.23
2022-10-12T19:15:19.929Z,9.00
2022-10-12T19:17:47.468Z,7.93
2022-10-12T19:20:15.106Z,7.60
2022-10-12T19:22:42.705Z,8.13
2022-10-12T19:25:11.771Z,8.10
2022-10-12T19:27:39.304Z,7.63
2022-10-12T19:30:08.450Z,8.27
2022-10-12T19:32:36.035Z,7.20
2022-10-12T19:35:03.761Z,7.63
2022-10-12T19:37:31.366Z,7.80
2022-10-12T19:39:58.966Z,8.50
2022-10-12T19:42:27.842Z,6.23
2022-10-12T19:44:55.387Z,6.20
2022-10-12T19:47:23.285Z,7.37
2022-10-12T19:49:50.957Z,6.60
2022-10-12T19:52:18.989Z,5.47
2022-10-12T19:54:46.936Z,6.77
2022-10-12T19:57:16.305Z,6.30
2022-10-12T19:59:45.238Z,6.37
2022-10-12T20:02:12.874Z,5.80
2022-10-12T20:04:40.645Z,5.70
2022-10-12T20:07:08.246Z,6.37
2022-10-12T20:09:35.808Z,6.13
2022-10-12T20:12:03.392Z,6.20
2022-10-12T20:14:31.178Z,6.30
2022-10-12T20:17:00.131Z,5.77
2022-10-12T20:19:27.714Z,6.50
2022-10-12T20:21:55.270Z,6.03
2022-10-12T20:24:22.883Z,6.40
2022-10-12T20:26:50.432Z,5.80
2022-10-12T20:29:17.979Z,4.93
2022-10-12T20:31:45.636Z,6.20
2022-10-12T20:34:14.510Z,6.00
2022-10-12T20:36:42.269Z,6.40
2022-10-12T20:39:09.915Z,7.10
2022-10-12T20:41:40.103Z,6.70
2022-10-12T20:44:08.191Z,6.33
2022-10-12T20:46:35.763Z,7.73
2022-10-12T20:49:04.818Z,7.07
2022-10-12T20:51:35.780Z,6.93
2022-10-12T20:54:05.570Z,7.83
2022-10-12T20:56:34.211Z,7.67
2022-10-12T20:59:02.082Z,9.57
2022-10-12T21:01:30.694Z,8.97
2022-10-12T21:03:58.362Z,9.20
2022-10-12T21:06:26.020Z,9.03
2022-10-12T21:08:56.514Z,8.40
2022-10-12T21:11:24.593Z,6.50
2022-10-12T21:13:52.201Z,7.53
2022-10-12T21:16:20.436Z,7.30
2022-10-12T21:18:48.034Z,7.33
2022-10-12T21:21:17.092Z,6.63
2022-10-12T21:23:45.777Z,6.53
2022-10-12T21:26:16.344Z,6.40
2022-10-12T21:28:44.446Z,6.80
2022-10-12T21:31:12.852Z,6.80
2022-10-12T21:33:40.786Z,7.00
2022-10-12T21:36:10.028Z,7.57
2022-10-12T21:38:37.822Z,7.37
2022-10-12T21:41:05.632Z,7.70
2022-10-12T21:43:34.907Z,7.40
2022-10-12T21:46:04.210Z,7.20
2022-10-12T21:48:32.416Z,7.07
2022-10-12T21:51:00.401Z,8.03
2022-10-12T21:53:28.071Z,8.00
2022-10-12T21:55:55.727Z,8.33
2022-10-12T21:58:23.410Z,8.77
2022-10-12T22:00:52.401Z,8.53
2022-10-12T22:03:20.113Z,8.13
2022-10-12T22:05:47.653Z,7.43
2022-10-12T22:08:15.342Z,6.77
2022-10-12T22:10:43.064Z,7.10
2022-10-12T22:13:10.688Z,7.57
2022-10-12T22:15:38.302Z,7.27
2022-10-12T22:18:07.320Z,7.40
2022-10-12T22:20:36.933Z,6.70
2022-10-12T22:23:04.768Z,7.37
2022-10-12T22:25:32.397Z,6.73
2022-10-12T22:27:59.959Z,7.70
2022-10-12T22:30:27.598Z,8.97
2022-10-12T22:32:55.133Z,6.70
2022-10-12T22:35:24.322Z,7.13
2022-10-12T22:37:52.057Z,7.23
2022-10-12T22:40:19.616Z,7.07
2022-10-12T22:42:47.232Z,7.40
2022-10-12T22:45:15.061Z,7.70
2022-10-12T22:47:42.694Z,7.43
2022-10-12T22:50:10.686Z,7.40
2022-10-12T22:52:39.634Z,8.00
2022-10-12T22:55:08.260Z,7.73
2022-10-12T22:57:35.953Z,9.70
2022-10-12T23:00:03.547Z,8.77
2022-10-12T23:02:30.997Z,7.63
2022-10-12T23:04:58.444Z,7.83
2022-10-12T23:07:25.914Z,9.00
2022-10-12T23:09:54.786Z,8.80
2022-10-12T23:12:22.656Z,7.80
2022-10-12T23:14:50.129Z,7.17
2022-10-12T23:17:17.585Z,6.83
2022-10-12T23:19:45.092Z,7.70
2022-10-12T23:22:12.544Z,7.67
2022-10-12T23:24:40.576Z,7.90
2022-10-12T23:27:09.395Z,6.67
2022-10-12T23:29:36.937Z,7.30
2022-10-12T23:32:04.986Z,6.83
2022-10-12T23:34:32.527Z,8.03
2022-10-12T23:37:00.039Z,8.50
2022-10-12T23:39:27.557Z,8.00
2022-10-12T23:41:55.020Z,7.90
2022-10-12T23:44:23.852Z,8.63
2022-10-12T23:46:51.328Z,7.30
2022-10-12T23:49:18.973Z,7.10
2022-10-12T23:51:46.433Z,7.03
2022-10-12T23:54:13.880Z,7.30
2022-10-12T23:56:41.375Z,8.03
2022-10-12T23:59:08.842Z,7.37
